sensor_id;sensor_type;location;lat;lon;timestamp;pressure;altitude;pressure_sealevel;temperature;humidity
45789;BME280;31492;54.856;26.318;2022-10-16T02:49:21;1003;;;8.8;100
45789;BME280;31492;54.856;26.318;2022-10-16T02:54:19;1003.5;;;9.9;100
45789;BME280;31492;54.856;26.318;2022-10-16T02:59:09;1003.5;;;9.9;100
45789;BME280;31492;54.856;26.318;2022-10-16T03:04:23;1003.4;;;9.9;100
45789;BME280;31492;54.856;26.318;2022-10-16T03:09:21;1003.5;;;9.9;100
45789;BME280;31492;54.856;26.318;2022-10-16T03:14:21;1003.5;;;9.9;100
45789;BME280;31492;54.856;26.318;2022-10-16T03:19:19;1003.5;;;9.9;100
45789;BME280;31492;54.856;26.318;2022-10-16T03:24:21;1003.5;;;10;100
45789;BME280;31492;54.856;26.318;2022-10-16T03:29:21;1003.5;;;9.9;100
45789;BME280;31492;54.856;26.318;2022-10-16T03:34:21;1003.5;;;10;100
45789;BME280;31492;54.856;26.318;2022-10-16T03:39:19;1003.6;;;10;100
45789;BME280;31492;54.856;26.318;2022-10-16T03:44:21;1003.7;;;10.1;100
45789;BME280;31492;54.856;26.318;2022-10-16T03:49:21;1003.8;;;10.1;100
45789;BME280;31492;54.856;26.318;2022-10-16T03:54:21;1003.7;;;10.1;100
45789;BME280;31492;54.856;26.318;2022-10-16T03:59:23;1003.6;;;10.1;100
45789;BME280;31492;54.856;26.318;2022-10-16T04:04:21;1003.6;;;10.1;100
45789;BME280;31492;54.856;26.318;2022-10-16T04:09:19;1003.5;;;10.1;100
45789;BME280;31492;54.856;26.318;2022-10-16T04:14:21;1003.4;;;9.9;100
45789;BME280;31492;54.856;26.318;2022-10-16T04:19:21;1003.5;;;9.9;100
45789;BME280;31492;54.856;26.318;2022-10-16T04:24:23;1003.4;;;9.8;100
45789;BME280;31492;54.856;26.318;2022-10-16T04:29:23;1003.4;;;9.8;100
45789;BME280;31492;54.856;26.318;2022-10-16T04:34:23;1003.4;;;9.8;100
45789;BME280;31492;54.856;26.318;2022-10-16T04:39:25;1003.4;;;9.8;100
45789;BME280;31492;54.856;26.318;2022-10-16T04:44:21;1003.5;;;9.8;100
45789;BME280;31492;54.856;26.318;2022-10-16T04:49:11;1003.6;;;9.8;100
45789;BME280;31492;54.856;26.318;2022-10-16T04:54:21;1003.7;;;9.7;100
45789;BME280;31492;54.856;26.318;2022-10-16T04:59:23;1003.7;;;9.8;100
45789;BME280;31492;54.856;26.318;2022-10-16T05:04:23;1003.7;;;9.7;100
45789;BME280;31492;54.856;26.318;2022-10-16T05:09:23;1003.8;;;9.7;100
45789;BME280;31492;54.856;26.318;2022-10-16T05:14:23;1003.9;;;9.7;100
45789;BME280;31492;54.856;26.318;2022-10-16T05:19:25;1004;;;9.7;100
45789;BME280;31492;54.856;26.318;2022-10-16T05:24:23;1004;;;9.7;100
45789;BME280;31492;54.856;26.318;2022-10-16T05:29:23;1004;;;9.6;100
45789;BME280;31492;54.856;26.318;2022-10-16T05:34:25;1004;;;9.7;100
45789;BME280;31492;54.856;26.318;2022-10-16T05:39:23;1003.9;;;9.7;100
45789;BME280;31492;54.856;26.318;2022-10-16T05:44:03;1003.9;;;9.7;100
45789;BME280;31492;54.856;26.318;2022-10-16T05:49:23;1003.9;;;9.8;100
45789;BME280;31492;54.856;26.318;2022-10-16T05:54:23;1003.9;;;9.9;100
45789;BME280;31492;54.856;26.318;2022-10-16T05:59:23;1003.9;;;10;100
45789;BME280;31492;54.856;26.318;2022-10-16T06:04:23;1003.9;;;10.1;100
45789;BME280;31492;54.856;26.318;2022-10-16T06:09:19;1004;;;10.2;100
45789;BME280;31492;54.856;26.318;2022-10-16T06:14:23;1004;;;10.3;100
45789;BME280;31492;54.856;26.318;2022-10-16T06:19:23;1004;;;10.3;100
45789;BME280;31492;54.856;26.318;2022-10-16T06:24:21;1004.1;;;10.4;100
45789;BME280;31492;54.856;26.318;2022-10-16T06:29:23;1004.2;;;10.5;100
45789;BME280;31492;54.856;26.318;2022-10-16T06:34:23;1004.3;;;10.5;100
45789;BME280;31492;54.856;26.318;2022-10-16T06:38:38;1004.3;;;10.5;100
45789;BME280;31492;54.856;26.318;2022-10-16T06:44:23;1004.3;;;10.5;100
45789;BME280;31492;54.856;26.318;2022-10-16T06:49:21;1004.4;;;10.6;100
45789;BME280;31492;54.856;26.318;2022-10-16T06:54:19;1004.4;;;10.7;100
45789;BME280;31492;54.856;26.318;2022-10-16T06:59:23;1004.3;;;10.8;100
45789;BME280;31492;54.856;26.318;2022-10-16T07:04:23;1004.3;;;10.8;100
45789;BME280;31492;54.856;26.318;2022-10-16T07:09:25;1004.4;;;10.8;100
45789;BME280;31492;54.856;26.318;2022-10-16T07:14:21;1004.4;;;10.9;100
45789;BME280;31492;54.856;26.318;2022-10-16T07:19:23;1004.4;;;10.9;100
45789;BME280;31492;54.856;26.318;2022-10-16T07:24:21;1004.4;;;10.9;100
45789;BME280;31492;54.856;26.318;2022-10-16T07:29:21;1004.4;;;11;100
45789;BME280;31492;54.856;26.318;2022-10-16T07:34:21;1004.5;;;11.1;100
45789;BME280;31492;54.856;26.318;2022-10-16T07:39:21;1004.6;;;11.1;100
45789;BME280;31492;54.856;26.318;2022-10-16T07:44:23;1004.6;;;11.2;100
45789;BME280;31492;54.856;26.318;2022-10-16T07:49:21;1004.7;;;11.3;100
45789;BME280;31492;54.856;26.318;2022-10-16T07:54:23;1004.7;;;11.5;100
45789;BME280;31492;54.856;26.318;2022-10-16T07:59:23;1004.8;;;11.6;100
45789;BME280;31492;54.856;26.318;2022-10-16T08:04:23;1004.8;;;11.8;100
45789;BME280;31492;54.856;26.318;2022-10-16T08:09:23;1004.8;;;12;100
45789;BME280;31492;54.856;26.318;2022-10-16T08:14:21;1004.8;;;11.9;100
45789;BME280;31492;54.856;26.318;2022-10-16T08:19:23;1004.8;;;12;100
45789;BME280;31492;54.856;26.318;2022-10-16T08:24:25;1004.9;;;12;100
45789;BME280;31492;54.856;26.318;2022-10-16T08:29:15;1004.8;;;12.1;100
45789;BME280;31492;54.856;26.318;2022-10-16T08:34:23;1004.8;;;12.1;100
45789;BME280;31492;54.856;26.318;2022-10-16T08:39:21;1004.8;;;12.1;100
45789;BME280;31492;54.856;26.318;2022-10-16T08:44:19;1004.7;;;12.2;100
45789;BME280;31492;54.856;26.318;2022-10-16T08:49:21;1004.8;;;12.2;100
45789;BME280;31492;54.856;26.318;2022-10-16T08:53:52;1004.8;;;12.4;100
45789;BME280;31492;54.856;26.318;2022-10-16T08:59:26;1004.7;;;12.6;100
45789;BME280;31492;54.856;26.318;2022-10-16T09:04:30;1004.7;;;12.7;100
45789;BME280;31492;54.856;26.318;2022-10-16T09:09:31;1004.7;;;12.8;100
45789;BME280;31492;54.856;26.318;2022-10-16T09:14:32;1004.7;;;13.1;100
45789;BME280;31492;54.856;26.318;2022-10-16T09:19:27;1004.7;;;13.3;100
45789;BME280;31492;54.856;26.318;2022-10-16T09:24:25;1004.7;;;13.3;100
45789;BME280;31492;54.856;26.318;2022-10-16T09:29:23;1004.7;;;13;100
45789;BME280;31492;54.856;26.318;2022-10-16T09:34:27;1004.6;;;13.1;100
45789;BME280;31492;54.856;26.318;2022-10-16T09:39:28;1004.6;;;13;100
45789;BME280;31492;54.856;26.318;2022-10-16T09:44:24;1004.6;;;12.9;100
45789;BME280;31492;54.856;26.318;2022-10-16T09:49:24;1004.6;;;13;100
45789;BME280;31492;54.856;26.318;2022-10-16T09:54:25;1004.6;;;13;100
45789;BME280;31492;54.856;26.318;2022-10-16T09:59:23;1004.6;;;13.1;100
45789;BME280;31492;54.856;26.318;2022-10-16T10:04:24;1004.6;;;13.1;100
45789;BME280;31492;54.856;26.318;2022-10-16T10:09:24;1004.5;;;13.3;100
45789;BME280;31492;54.856;26.318;2022-10-16T10:14:30;1004.6;;;13.5;100
45789;BME280;31492;54.856;26.318;2022-10-16T10:19:23;1004.6;;;13.4;100
45789;BME280;31492;54.856;26.318;2022-10-16T10:24:26;1004.6;;;13.6;100
45789;BME280;31492;54.856;26.318;2022-10-16T10:29:31;1004.5;;;13.8;100
45789;BME280;31492;54.856;26.318;2022-10-16T10:34:26;1004.5;;;13.9;100
45789;BME280;31492;54.856;26.318;2022-10-16T10:39:27;1004.5;;;13.9;100
45789;BME280;31492;54.856;26.318;2022-10-16T10:44:26;1004.5;;;14.1;100
45789;BME280;31492;54.856;26.318;2022-10-16T10:49:29;1004.5;;;14;100
45789;BME280;31492;54.856;26.318;2022-10-16T10:54:28;1004.5;;;13.9;100
45789;BME280;31492;54.856;26.318;2022-10-16T10:59:30;1004.5;;;13.8;100
45789;BME280;31492;54.856;26.318;2022-10-16T11:04:30;1004.5;;;13.7;100
45789;BME280;31492;54.856;26.318;2022-10-16T11:09:24;1004.5;;;13.6;100
45789;BME280;31492;54.856;26.318;2022-10-16T11:14:23;1004.4;;;13.7;100
45789;BME280;31492;54.856;26.318;2022-10-16T11:18:58;1004.4;;;13.8;100
45789;BME280;31492;54.856;26.318;2022-10-16T11:24:16;1004.5;;;13.8;100
45789;BME280;31492;54.856;26.318;2022-10-16T11:29:29;1004.4;;;13.8;100
45789;BME280;31492;54.856;26.318;2022-10-16T11:34:12;1004.4;;;13.8;100
45789;BME280;31492;54.856;26.318;2022-10-16T11:39:22;1004.4;;;13.6;100
45789;BME280;31492;54.856;26.318;2022-10-16T11:44:31;1004.4;;;13.5;100
45789;BME280;31492;54.856;26.318;2022-10-16T11:49:26;1004.4;;;13.5;100
45789;BME280;31492;54.856;26.318;2022-10-16T11:54:28;1004.4;;;13.5;100
45789;BME280;31492;54.856;26.318;2022-10-16T11:59:28;1004.4;;;13.6;100
45789;BME280;31492;54.856;26.318;2022-10-16T12:04:26;1004.4;;;13.6;100
45789;BME280;31492;54.856;26.318;2022-10-16T12:09:22;1004.4;;;13.7;100
45789;BME280;31492;54.856;26.318;2022-10-16T12:14:34;1004.4;;;13.7;100
45789;BME280;31492;54.856;26.318;2022-10-16T12:19:29;1004.5;;;13.7;100
45789;BME280;31492;54.856;26.318;2022-10-16T12:24:30;1004.4;;;13.7;100
45789;BME280;31492;54.856;26.318;2022-10-16T12:29:29;1004.4;;;13.7;100
45789;BME280;31492;54.856;26.318;2022-10-16T12:34:26;1004.4;;;13.7;100
45789;BME280;31492;54.856;26.318;2022-10-16T12:39:27;1004.4;;;13.8;100
45789;BME280;31492;54.856;26.318;2022-10-16T12:44:24;1004.4;;;13.8;100
45789;BME280;31492;54.856;26.318;2022-10-16T12:49:23;1004.3;;;13.8;100
45789;BME280;31492;54.856;26.318;2022-10-16T12:54:28;1004.3;;;13.7;100
45789;BME280;31492;54.856;26.318;2022-10-16T12:59:21;1004.3;;;13.7;100
45789;BME280;31492;54.856;26.318;2022-10-16T13:04:29;1004.2;;;13.6;100
45789;BME280;31492;54.856;26.318;2022-10-16T13:09:44;1004.3;;;13.7;100
45789;BME280;31492;54.856;26.318;2022-10-16T13:14:24;1004.3;;;13.6;100
45789;BME280;31492;54.856;26.318;2022-10-16T13:19:24;1004.3;;;13.6;100
45789;BME280;31492;54.856;26.318;2022-10-16T13:24:30;1004.2;;;13.6;100
45789;BME280;31492;54.856;26.318;2022-10-16T13:29:29;1004.3;;;13.7;100
45789;BME280;31492;54.856;26.318;2022-10-16T13:34:26;1004.3;;;13.7;100
45789;BME280;31492;54.856;26.318;2022-10-16T13:39:26;1004.2;;;13.7;100
45789;BME280;31492;54.856;26.318;2022-10-16T13:44:26;1004.2;;;13.8;100
45789;BME280;31492;54.856;26.318;2022-10-16T13:49:26;1004.3;;;13.8;100
45789;BME280;31492;54.856;26.318;2022-10-16T13:54:26;1004.3;;;13.8;100
45789;BME280;31492;54.856;26.318;2022-10-16T13:59:26;1004.3;;;13.8;100
45789;BME280;31492;54.856;26.318;2022-10-16T14:04:22;1004.3;;;13.9;100
45789;BME280;31492;54.856;26.318;2022-10-16T14:09:26;1004.3;;;13.9;100
45789;BME280;31492;54.856;26.318;2022-10-16T14:14:26;1004.3;;;14;100
45789;BME280;31492;54.856;26.318;2022-10-16T14:19:29;1004.3;;;14;100
45789;BME280;31492;54.856;26.318;2022-10-16T14:24:25;1004.3;;;14;100
45789;BME280;31492;54.856;26.318;2022-10-16T14:29:22;1004.5;;;13.9;100
45789;BME280;31492;54.856;26.318;2022-10-16T14:34:24;1004.5;;;13.9;100
45789;BME280;31492;54.856;26.318;2022-10-16T14:39:26;1004.5;;;13.8;100
45789;BME280;31492;54.856;26.318;2022-10-16T14:44:29;1004.6;;;13.8;100
45789;BME280;31492;54.856;26.318;2022-10-16T14:49:26;1004.7;;;13.7;100
45789;BME280;31492;54.856;26.318;2022-10-16T14:54:12;1004.7;;;13.7;100
45789;BME280;31492;54.856;26.318;2022-10-16T14:59:24;1004.7;;;13.6;100
45789;BME280;31492;54.856;26.318;2022-10-16T15:04:26;1004.7;;;13.5;100
45789;BME280;31492;54.856;26.318;2022-10-16T15:09:26;1004.8;;;13.4;100
45789;BME280;31492;54.856;26.318;2022-10-16T15:14:26;1004.8;;;13.3;100
45789;BME280;31492;54.856;26.318;2022-10-16T15:19:26;1004.8;;;13.3;100
45789;BME280;31492;54.856;26.318;2022-10-16T15:24:30;1004.8;;;13.2;100
45789;BME280;31492;54.856;26.318;2022-10-16T15:29:24;1004.7;;;13.2;100
45789;BME280;31492;54.856;26.318;2022-10-16T15:34:26;1004.6;;;13.1;100
45789;BME280;31492;54.856;26.318;2022-10-16T15:39:28;1004.5;;;13.1;100
45789;BME280;31492;54.856;26.318;2022-10-16T15:44:24;1004.5;;;13;100
45789;BME280;31492;54.856;26.318;2022-10-16T15:49:26;1004.5;;;12.9;100
45789;BME280;31492;54.856;26.318;2022-10-16T15:54:26;1004.6;;;12.7;100
45789;BME280;31492;54.856;26.318;2022-10-16T15:59:14;1004.6;;;12.7;100
45789;BME280;31492;54.856;26.318;2022-10-16T16:04:26;1004.8;;;12.7;100
45789;BME280;31492;54.856;26.318;2022-10-16T16:09:26;1004.9;;;12.6;100
45789;BME280;31492;54.856;26.318;2022-10-16T16:14:24;1004.8;;;12.7;100
45789;BME280;31492;54.856;26.318;2022-10-16T16:19:24;1004.8;;;12.7;100
45789;BME280;31492;54.856;26.318;2022-10-16T16:24:22;1004.9;;;12.7;100
45789;BME280;31492;54.856;26.318;2022-10-16T16:29:22;1004.7;;;12.7;100
45789;BME280;31492;54.856;26.318;2022-10-16T16:34:24;1004.7;;;12.7;100
45789;BME280;31492;54.856;26.318;2022-10-16T16:39:26;1004.7;;;12.8;100
45789;BME280;31492;54.856;26.318;2022-10-16T16:44:22;1004.6;;;12.8;100
45789;BME280;31492;54.856;26.318;2022-10-16T16:49:28;1004.7;;;12.8;100
45789;BME280;31492;54.856;26.318;2022-10-16T16:54:26;1004.7;;;12.9;100
45789;BME280;31492;54.856;26.318;2022-10-16T16:59:26;1004.6;;;12.9;100
45789;BME280;31492;54.856;26.318;2022-10-16T17:04:24;1004.6;;;12.9;100
45789;BME280;31492;54.856;26.318;2022-10-16T17:09:24;1004.7;;;12.9;100
45789;BME280;31492;54.856;26.318;2022-10-16T17:14:28;1004.8;;;12.9;100
45789;BME280;31492;54.856;26.318;2022-10-16T17:19:22;1004.9;;;13;100
45789;BME280;31492;54.856;26.318;2022-10-16T17:24:22;1004.9;;;13;100
45789;BME280;31492;54.856;26.318;2022-10-16T17:29:24;1004.9;;;13;100
45789;BME280;31492;54.856;26.318;2022-10-16T17:34:23;1004.9;;;13.1;100
45789;BME280;31492;54.856;26.318;2022-10-16T17:39:12;1004.8;;;13.1;100
45789;BME280;31492;54.856;26.318;2022-10-16T17:44:22;1004.8;;;13.1;100
45789;BME280;31492;54.856;26.318;2022-10-16T17:49:24;1004.7;;;13.1;100
45789;BME280;31492;54.856;26.318;2022-10-16T17:53:58;1004.8;;;13.1;100
45789;BME280;31492;54.856;26.318;2022-10-16T17:59:22;1004.8;;;13.1;100
45789;BME280;31492;54.856;26.318;2022-10-16T18:04:26;1004.9;;;13.1;100
45789;BME280;31492;54.856;26.318;2022-10-16T18:09:20;1004.9;;;13.1;100
45789;BME280;31492;54.856;26.318;2022-10-16T18:14:24;1004.9;;;12.9;100
45789;BME280;31492;54.856;26.318;2022-10-16T18:19:26;1005;;;12.6;100
45789;BME280;31492;54.856;26.318;2022-10-16T18:24:24;1005.1;;;12.4;100
45789;BME280;31492;54.856;26.318;2022-10-16T18:29:25;1005.1;;;12.3;100
45789;BME280;31492;54.856;26.318;2022-10-16T18:34:26;1005;;;12.3;100
45789;BME280;31492;54.856;26.318;2022-10-16T18:39:26;1004.9;;;12.2;100
45789;BME280;31492;54.856;26.318;2022-10-16T18:44:26;1005;;;12.3;100
45789;BME280;31492;54.856;26.318;2022-10-16T18:49:24;1005;;;12.3;100
45789;BME280;31492;54.856;26.318;2022-10-16T18:54:26;1005;;;12.3;100
45789;BME280;31492;54.856;26.318;2022-10-16T18:59:26;1005.1;;;12.3;100
45789;BME280;31492;54.856;26.318;2022-10-16T19:04:26;1005.1;;;12.4;100
45789;BME280;31492;54.856;26.318;2022-10-16T19:09:24;1005.2;;;12.4;100
45789;BME280;31492;54.856;26.318;2022-10-16T19:14:22;1005.3;;;12.3;100
45789;BME280;31492;54.856;26.318;2022-10-16T19:19:24;1005.2;;;12.2;100
45789;BME280;31492;54.856;26.318;2022-10-16T19:24:24;1005.2;;;12.2;100
45789;BME280;31492;54.856;26.318;2022-10-16T19:29:26;1005.2;;;12.1;100
45789;BME280;31492;54.856;26.318;2022-10-16T19:34:28;1005.2;;;12.1;100
45789;BME280;31492;54.856;26.318;2022-10-16T19:39:22;1005.2;;;12.1;100
45789;BME280;31492;54.856;26.318;2022-10-16T19:44:09;1005.3;;;12.1;100
45789;BME280;31492;54.856;26.318;2022-10-16T19:49:24;1005.3;;;12;100
45789;BME280;31492;54.856;26.318;2022-10-16T19:54:26;1005.3;;;12.1;100
45789;BME280;31492;54.856;26.318;2022-10-16T19:59:28;1005.3;;;12;100
45789;BME280;31492;54.856;26.318;2022-10-16T20:04:24;1005.2;;;12;100
45789;BME280;31492;54.856;26.318;2022-10-16T20:09:24;1005.2;;;12;100
45789;BME280;31492;54.856;26.318;2022-10-16T20:14:24;1005.3;;;12.1;100
45789;BME280;31492;54.856;26.318;2022-10-16T20:19:24;1005.3;;;12.1;100
45789;BME280;31492;54.856;26.318;2022-10-16T20:24:22;1005.3;;;12.1;100
45789;BME280;31492;54.856;26.318;2022-10-16T20:29:22;1005.3;;;12;100
45789;BME280;31492;54.856;26.318;2022-10-16T20:34:26;1005.3;;;12;100
45789;BME280;31492;54.856;26.318;2022-10-16T20:39:26;1005.2;;;12;100
45789;BME280;31492;54.856;26.318;2022-10-16T20:44:26;1005.3;;;12;100
45789;BME280;31492;54.856;26.318;2022-10-16T20:49:28;1005.3;;;12.1;100
45789;BME280;31492;54.856;26.318;2022-10-16T20:54:16;1005.3;;;12;100
45789;BME280;31492;54.856;26.318;2022-10-16T20:59:26;1005.3;;;12.1;100
45789;BME280;31492;54.856;26.318;2022-10-16T21:04:26;1005.3;;;12;100
45789;BME280;31492;54.856;26.318;2022-10-16T21:09:26;1005.3;;;12.1;100
45789;BME280;31492;54.856;26.318;2022-10-16T21:14:28;1005.4;;;12.1;100
45789;BME280;31492;54.856;26.318;2022-10-16T21:19:28;1005.4;;;12.2;100
45789;BME280;31492;54.856;26.318;2022-10-16T21:24:24;1005.3;;;12.2;100
45789;BME280;31492;54.856;26.318;2022-10-16T21:29:12;1005.4;;;12.2;100
45789;BME280;31492;54.856;26.318;2022-10-16T21:34:24;1005.4;;;12.2;100
45789;BME280;31492;54.856;26.318;2022-10-16T21:39:24;1005.4;;;12.1;100
45789;BME280;31492;54.856;26.318;2022-10-16T21:44:12;1005.5;;;12.2;100
45789;BME280;31492;54.856;26.318;2022-10-16T21:49:26;1005.5;;;12.1;100
45789;BME280;31492;54.856;26.318;2022-10-16T21:54:26;1005.5;;;12.1;100
45789;BME280;31492;54.856;26.318;2022-10-16T21:59:28;1005.5;;;12.2;100
45789;BME280;31492;54.856;26.318;2022-10-16T22:04:26;1005.4;;;12.2;100
45789;BME280;31492;54.856;26.318;2022-10-16T22:09:26;1005.4;;;12.2;100
45789;BME280;31492;54.856;26.318;2022-10-16T22:14:26;1005.6;;;12.3;100
45789;BME280;31492;54.856;26.318;2022-10-16T22:19:28;1005.6;;;12.2;100
45789;BME280;31492;54.856;26.318;2022-10-16T22:24:26;1005.6;;;12.2;100
45789;BME280;31492;54.856;26.318;2022-10-16T22:29:26;1005.7;;;12.3;100
45789;BME280;31492;54.856;26.318;2022-10-16T22:34:26;1005.7;;;12.3;100
45789;BME280;31492;54.856;26.318;2022-10-16T22:39:20;1005.7;;;12.2;100
45789;BME280;31492;54.856;26.318;2022-10-16T22:44:24;1005.7;;;12.2;100
45789;BME280;31492;54.856;26.318;2022-10-16T22:49:24;1005.7;;;12.3;100
45789;BME280;31492;54.856;26.318;2022-10-16T22:54:24;1005.7;;;12.3;100
45789;BME280;31492;54.856;26.318;2022-10-16T22:59:26;1005.6;;;12.4;100
45789;BME280;31492;54.856;26.318;2022-10-16T23:04:20;1005.6;;;12.3;100
45789;BME280;31492;54.856;26.318;2022-10-16T23:09:26;1005.5;;;12.3;100
45789;BME280;31492;54.856;26.318;2022-10-16T23:14:26;1005.5;;;12.2;100
45789;BME280;31492;54.856;26.318;2022-10-16T23:19:22;1005.5;;;12.2;100
